sensor_id;sensor_type;location;lat;lon;timestamp;P1;durP1;ratioP1;P2;durP2;ratioP2
74912;SDS011;63878;55.624;37.304;2023-02-28T00:09:33;7.80;;;3.88;;
74912;SDS011;63878;55.624;37.304;2023-02-28T00:19:33;6.97;;;4.03;;
74912;SDS011;63878;55.624;37.304;2023-02-28T00:29:34;7.93;;;4.88;;
74912;SDS011;63878;55.624;37.304;2023-02-28T00:39:35;7.75;;;4.57;;
74912;SDS011;63878;55.624;37.304;2023-02-28T00:49:36;7.72;;;4.72;;
74912;SDS011;63878;55.624;37.304;2023-02-28T00:59:37;8.13;;;4.10;;
74912;SDS011;63878;55.624;37.304;2023-02-28T01:09:38;7.13;;;3.90;;
74912;SDS011;63878;55.624;37.304;2023-02-28T01:19:38;6.22;;;4.15;;
74912;SDS011;63878;55.624;37.304;2023-02-28T01:29:39;7.15;;;3.88;;
74912;SDS011;63878;55.624;37.304;2023-02-28T01:39:39;7.17;;;4.20;;
74912;SDS011;63878;55.624;37.304;2023-02-28T01:49:40;8.07;;;4.22;;
74912;SDS011;63878;55.624;37.304;2023-02-28T01:59:42;6.28;;;3.85;;
74912;SDS011;63878;55.624;37.304;2023-02-28T02:09:48;8.40;;;3.85;;
74912;SDS011;63878;55.624;37.304;2023-02-28T02:30:14;7.07;;;4.78;;
74912;SDS011;63878;55.624;37.304;2023-02-28T02:40:25;7.47;;;4.13;;
74912;SDS011;63878;55.624;37.304;2023-02-28T02:50:36;5.93;;;3.20;;
74912;SDS011;63878;55.624;37.304;2023-02-28T03:00:45;7.03;;;3.63;;
74912;SDS011;63878;55.624;37.304;2023-02-28T03:10:50;7.50;;;4.13;;
74912;SDS011;63878;55.624;37.304;2023-02-28T03:21:38;7.22;;;4.13;;
74912;SDS011;63878;55.624;37.304;2023-02-28T03:31:38;6.88;;;4.05;;
74912;SDS011;63878;55.624;37.304;2023-02-28T03:41:49;6.80;;;3.70;;
74912;SDS011;63878;55.624;37.304;2023-02-28T03:51:56;6.60;;;4.05;;
74912;SDS011;63878;55.624;37.304;2023-02-28T04:02:01;6.28;;;3.97;;
74912;SDS011;63878;55.624;37.304;2023-02-28T04:12:02;5.15;;;2.90;;
74912;SDS011;63878;55.624;37.304;2023-02-28T04:22:03;4.88;;;2.80;;
74912;SDS011;63878;55.624;37.304;2023-02-28T04:42:05;4.23;;;3.10;;
74912;SDS011;63878;55.624;37.304;2023-02-28T04:52:06;5.82;;;3.00;;
74912;SDS011;63878;55.624;37.304;2023-02-28T05:02:06;4.45;;;2.55;;
74912;SDS011;63878;55.624;37.304;2023-02-28T05:12:08;6.40;;;3.97;;
74912;SDS011;63878;55.624;37.304;2023-02-28T05:22:12;7.32;;;3.67;;
74912;SDS011;63878;55.624;37.304;2023-02-28T05:32:15;3.75;;;2.15;;
74912;SDS011;63878;55.624;37.304;2023-02-28T05:42:16;6.13;;;2.90;;
74912;SDS011;63878;55.624;37.304;2023-02-28T05:52:17;4.72;;;3.13;;
74912;SDS011;63878;55.624;37.304;2023-02-28T06:02:18;5.50;;;2.88;;
74912;SDS011;63878;55.624;37.304;2023-02-28T06:12:19;5.15;;;3.28;;
74912;SDS011;63878;55.624;37.304;2023-02-28T06:22:19;6.63;;;3.30;;
74912;SDS011;63878;55.624;37.304;2023-02-28T06:32:20;3.95;;;2.22;;
74912;SDS011;63878;55.624;37.304;2023-02-28T06:42:21;4.63;;;2.80;;
74912;SDS011;63878;55.624;37.304;2023-02-28T06:52:23;4.35;;;2.63;;
74912;SDS011;63878;55.624;37.304;2023-02-28T07:02:23;4.18;;;2.65;;
74912;SDS011;63878;55.624;37.304;2023-02-28T07:12:24;4.20;;;2.33;;
74912;SDS011;63878;55.624;37.304;2023-02-28T07:22:27;4.15;;;2.55;;
74912;SDS011;63878;55.624;37.304;2023-02-28T07:32:28;5.32;;;2.72;;
74912;SDS011;63878;55.624;37.304;2023-02-28T07:42:29;4.63;;;2.88;;
74912;SDS011;63878;55.624;37.304;2023-02-28T07:52:31;6.75;;;2.88;;
74912;SDS011;63878;55.624;37.304;2023-02-28T08:02:32;6.18;;;3.00;;
74912;SDS011;63878;55.624;37.304;2023-02-28T08:12:33;4.93;;;2.87;;
74912;SDS011;63878;55.624;37.304;2023-02-28T08:22:33;4.32;;;2.85;;
74912;SDS011;63878;55.624;37.304;2023-02-28T08:32:34;6.10;;;2.83;;
74912;SDS011;63878;55.624;37.304;2023-02-28T08:42:35;3.37;;;2.47;;
74912;SDS011;63878;55.624;37.304;2023-02-28T08:52:36;4.28;;;2.58;;
74912;SDS011;63878;55.624;37.304;2023-02-28T09:02:37;3.67;;;2.65;;
74912;SDS011;63878;55.624;37.304;2023-02-28T09:12:38;5.25;;;2.00;;
74912;SDS011;63878;55.624;37.304;2023-02-28T09:22:39;5.93;;;2.63;;
74912;SDS011;63878;55.624;37.304;2023-02-28T09:32:40;5.72;;;3.22;;
74912;SDS011;63878;55.624;37.304;2023-02-28T09:42:41;3.97;;;2.15;;
74912;SDS011;63878;55.624;37.304;2023-02-28T09:52:42;3.53;;;2.20;;
74912;SDS011;63878;55.624;37.304;2023-02-28T10:13:01;3.30;;;2.40;;
74912;SDS011;63878;55.624;37.304;2023-02-28T10:23:17;4.30;;;2.30;;
74912;SDS011;63878;55.624;37.304;2023-02-28T10:33:22;4.50;;;2.85;;
74912;SDS011;63878;55.624;37.304;2023-02-28T10:43:25;4.43;;;2.38;;
74912;SDS011;63878;55.624;37.304;2023-02-28T11:03:31;4.93;;;2.83;;
74912;SDS011;63878;55.624;37.304;2023-02-28T11:13:34;7.53;;;4.18;;
74912;SDS011;63878;55.624;37.304;2023-02-28T11:23:37;5.50;;;3.13;;
74912;SDS011;63878;55.624;37.304;2023-02-28T12:04:28;4.38;;;3.10;;
74912;SDS011;63878;55.624;37.304;2023-02-28T12:34:59;5.85;;;3.65;;
74912;SDS011;63878;55.624;37.304;2023-02-28T12:45:09;4.65;;;2.85;;
74912;SDS011;63878;55.624;37.304;2023-02-28T13:05:36;12.18;;;6.65;;
74912;SDS011;63878;55.624;37.304;2023-02-28T13:15:40;6.68;;;3.30;;
74912;SDS011;63878;55.624;37.304;2023-02-28T13:35:44;4.30;;;2.83;;
74912;SDS011;63878;55.624;37.304;2023-02-28T14:16:38;5.35;;;3.30;;
74912;SDS011;63878;55.624;37.304;2023-02-28T14:26:55;5.82;;;3.60;;
74912;SDS011;63878;55.624;37.304;2023-02-28T14:37:03;5.38;;;3.33;;
74912;SDS011;63878;55.624;37.304;2023-02-28T14:47:11;8.40;;;4.35;;
74912;SDS011;63878;55.624;37.304;2023-02-28T14:57:25;7.65;;;4.43;;
74912;SDS011;63878;55.624;37.304;2023-02-28T15:07:29;7.93;;;4.47;;
74912;SDS011;63878;55.624;37.304;2023-02-28T15:27:31;8.32;;;4.43;;
74912;SDS011;63878;55.624;37.304;2023-02-28T15:37:37;7.28;;;4.47;;
74912;SDS011;63878;55.624;37.304;2023-02-28T15:47:40;7.47;;;4.05;;
74912;SDS011;63878;55.624;37.304;2023-02-28T16:07:50;7.13;;;3.88;;
74912;SDS011;63878;55.624;37.304;2023-02-28T16:17:52;6.18;;;3.75;;
74912;SDS011;63878;55.624;37.304;2023-02-28T16:27:53;4.85;;;2.78;;
74912;SDS011;63878;55.624;37.304;2023-02-28T16:37:55;5.20;;;2.90;;
74912;SDS011;63878;55.624;37.304;2023-02-28T16:47:57;7.82;;;3.33;;
74912;SDS011;63878;55.624;37.304;2023-02-28T16:57:58;6.07;;;2.80;;
74912;SDS011;63878;55.624;37.304;2023-02-28T17:08:00;3.25;;;2.00;;
74912;SDS011;63878;55.624;37.304;2023-02-28T17:18:02;4.50;;;2.45;;
74912;SDS011;63878;55.624;37.304;2023-02-28T17:28:03;4.53;;;2.45;;
74912;SDS011;63878;55.624;37.304;2023-02-28T17:38:04;2.58;;;1.30;;
74912;SDS011;63878;55.624;37.304;2023-02-28T17:48:05;2.30;;;1.10;;
74912;SDS011;63878;55.624;37.304;2023-02-28T17:58:08;2.65;;;0.88;;
74912;SDS011;63878;55.624;37.304;2023-02-28T18:08:10;1.48;;;0.47;;
74912;SDS011;63878;55.624;37.304;2023-02-28T18:18:14;2.33;;;0.60;;
74912;SDS011;63878;55.624;37.304;2023-02-28T18:28:15;3.10;;;0.70;;
74912;SDS011;63878;55.624;37.304;2023-02-28T18:38:16;1.88;;;0.90;;
74912;SDS011;63878;55.624;37.304;2023-02-28T18:48:17;1.67;;;0.70;;
74912;SDS011;63878;55.624;37.304;2023-02-28T19:08:18;2.00;;;0.40;;
74912;SDS011;63878;55.624;37.304;2023-02-28T19:28:19;1.63;;;0.80;;
74912;SDS011;63878;55.624;37.304;2023-02-28T19:38:19;2.75;;;0.50;;
74912;SDS011;63878;55.624;37.304;2023-02-28T19:48:20;0.87;;;0.30;;
74912;SDS011;63878;55.624;37.304;2023-02-28T19:58:21;1.27;;;0.52;;
74912;SDS011;63878;55.624;37.304;2023-02-28T20:08:22;0.75;;;0.50;;
74912;SDS011;63878;55.624;37.304;2023-02-28T20:18:22;2.55;;;1.00;;
74912;SDS011;63878;55.624;37.304;2023-02-28T20:28:23;3.20;;;0.82;;
74912;SDS011;63878;55.624;37.304;2023-02-28T20:38:23;0.98;;;0.60;;
74912;SDS011;63878;55.624;37.304;2023-02-28T20:48:23;1.92;;;0.38;;
74912;SDS011;63878;55.624;37.304;2023-02-28T20:58:25;2.60;;;0.50;;
74912;SDS011;63878;55.624;37.304;2023-02-28T21:08:27;2.40;;;0.70;;
74912;SDS011;63878;55.624;37.304;2023-02-28T21:18:28;2.55;;;0.60;;
74912;SDS011;63878;55.624;37.304;2023-02-28T21:28:29;1.90;;;0.63;;
74912;SDS011;63878;55.624;37.304;2023-02-28T21:38:30;1.58;;;0.50;;
74912;SDS011;63878;55.624;37.304;2023-02-28T21:48:32;0.88;;;0.30;;
74912;SDS011;63878;55.624;37.304;2023-02-28T21:58:36;3.17;;;0.68;;
74912;SDS011;63878;55.624;37.304;2023-02-28T22:08:37;3.42;;;0.40;;
74912;SDS011;63878;55.624;37.304;2023-02-28T22:18:39;1.42;;;0.50;;
74912;SDS011;63878;55.624;37.304;2023-02-28T22:28:41;3.80;;;0.57;;
74912;SDS011;63878;55.624;37.304;2023-02-28T22:38:42;1.23;;;0.63;;
74912;SDS011;63878;55.624;37.304;2023-02-28T22:48:43;0.95;;;0.28;;
74912;SDS011;63878;55.624;37.304;2023-02-28T22:58:48;3.97;;;0.40;;
74912;SDS011;63878;55.624;37.304;2023-02-28T23:08:50;1.67;;;0.40;;
74912;SDS011;63878;55.624;37.304;2023-02-28T23:18:53;1.27;;;0.40;;
74912;SDS011;63878;55.624;37.304;2023-02-28T23:28:54;0.47;;;0.30;;
74912;SDS011;63878;55.624;37.304;2023-02-28T23:38:55;2.72;;;0.30;;
74912;SDS011;63878;55.624;37.304;2023-02-28T23:48:57;3.30;;;0.63;;
74912;SDS011;63878;55.624;37.304;2023-02-28T23:58:58;0.65;;;0.22;;
